sensor_id;sensor_type;location;lat;lon;timestamp;P1;durP1;ratioP1;P2;durP2;ratioP2
3121;SDS011;1571;52.524;14.104;2022-12-11T00:01:09;16.10;;;10.53;;
3121;SDS011;1571;52.524;14.104;2022-12-11T00:03:39;21.03;;;12.80;;
3121;SDS011;1571;52.524;14.104;2022-12-11T00:06:07;20.90;;;12.73;;
3121;SDS011;1571;52.524;14.104;2022-12-11T00:08:37;21.20;;;12.87;;
3121;SDS011;1571;52.524;14.104;2022-12-11T00:11:08;21.50;;;13.13;;
3121;SDS011;1571;52.524;14.104;2022-12-11T00:13:37;20.60;;;12.50;;
3121;SDS011;1571;52.524;14.104;2022-12-11T00:16:05;19.80;;;14.13;;
3121;SDS011;1571;52.524;14.104;2022-12-11T00:18:34;26.23;;;12.50;;
3121;SDS011;1571;52.524;14.104;2022-12-11T00:21:04;21.20;;;12.60;;
3121;SDS011;1571;52.524;14.104;2022-12-11T00:23:39;21.37;;;14.10;;
3121;SDS011;1571;52.524;14.104;2022-12-11T00:26:11;18.73;;;12.10;;
3121;SDS011;1571;52.524;14.104;2022-12-11T00:28:41;19.53;;;11.60;;
3121;SDS011;1571;52.524;14.104;2022-12-11T00:31:10;18.93;;;12.00;;
3121;SDS011;1571;52.524;14.104;2022-12-11T00:33:41;21.47;;;12.60;;
3121;SDS011;1571;52.524;14.104;2022-12-11T00:36:10;20.50;;;12.73;;
3121;SDS011;1571;52.524;14.104;2022-12-11T00:38:39;23.03;;;14.17;;
3121;SDS011;1571;52.524;14.104;2022-12-11T00:41:09;27.20;;;13.30;;
3121;SDS011;1571;52.524;14.104;2022-12-11T00:43:38;22.97;;;13.73;;
3121;SDS011;1571;52.524;14.104;2022-12-11T00:46:06;20.33;;;14.00;;
3121;SDS011;1571;52.524;14.104;2022-12-11T00:48:34;21.40;;;13.17;;
3121;SDS011;1571;52.524;14.104;2022-12-11T00:51:03;20.80;;;13.37;;
3121;SDS011;1571;52.524;14.104;2022-12-11T00:53:32;24.53;;;12.63;;
3121;SDS011;1571;52.524;14.104;2022-12-11T00:56:00;26.13;;;14.73;;
3121;SDS011;1571;52.524;14.104;2022-12-11T00:58:29;20.20;;;13.60;;
3121;SDS011;1571;52.524;14.104;2022-12-11T01:01:03;21.00;;;13.53;;
3121;SDS011;1571;52.524;14.104;2022-12-11T01:03:32;24.53;;;13.77;;
3121;SDS011;1571;52.524;14.104;2022-12-11T01:06:00;19.23;;;13.13;;
3121;SDS011;1571;52.524;14.104;2022-12-11T01:08:29;22.47;;;14.70;;
3121;SDS011;1571;52.524;14.104;2022-12-11T01:11:05;23.73;;;14.53;;
3121;SDS011;1571;52.524;14.104;2022-12-11T01:13:35;20.93;;;13.27;;
3121;SDS011;1571;52.524;14.104;2022-12-11T01:16:05;16.03;;;11.70;;
3121;SDS011;1571;52.524;14.104;2022-12-11T01:18:34;19.43;;;13.43;;
3121;SDS011;1571;52.524;14.104;2022-12-11T01:21:06;24.00;;;13.73;;
3121;SDS011;1571;52.524;14.104;2022-12-11T01:23:35;21.33;;;12.80;;
3121;SDS011;1571;52.524;14.104;2022-12-11T01:26:05;20.37;;;12.23;;
3121;SDS011;1571;52.524;14.104;2022-12-11T01:28:36;19.87;;;12.27;;
3121;SDS011;1571;52.524;14.104;2022-12-11T01:31:06;19.07;;;11.10;;
3121;SDS011;1571;52.524;14.104;2022-12-11T01:33:35;22.77;;;13.30;;
3121;SDS011;1571;52.524;14.104;2022-12-11T01:36:05;20.10;;;13.80;;
3121;SDS011;1571;52.524;14.104;2022-12-11T01:38:35;24.23;;;13.03;;
3121;SDS011;1571;52.524;14.104;2022-12-11T01:41:03;22.33;;;12.07;;
3121;SDS011;1571;52.524;14.104;2022-12-11T01:43:31;19.60;;;13.03;;
3121;SDS011;1571;52.524;14.104;2022-12-11T01:46:01;28.07;;;14.10;;
3121;SDS011;1571;52.524;14.104;2022-12-11T01:48:29;21.93;;;12.50;;
3121;SDS011;1571;52.524;14.104;2022-12-11T01:51:05;20.00;;;12.20;;
3121;SDS011;1571;52.524;14.104;2022-12-11T01:53:34;19.43;;;13.50;;
3121;SDS011;1571;52.524;14.104;2022-12-11T01:56:07;21.30;;;12.87;;
3121;SDS011;1571;52.524;14.104;2022-12-11T01:58:37;18.37;;;11.77;;
3121;SDS011;1571;52.524;14.104;2022-12-11T02:01:11;19.80;;;12.10;;
3121;SDS011;1571;52.524;14.104;2022-12-11T02:03:47;18.73;;;12.20;;
3121;SDS011;1571;52.524;14.104;2022-12-11T02:06:32;22.33;;;12.10;;
3121;SDS011;1571;52.524;14.104;2022-12-11T02:09:02;19.20;;;11.10;;
3121;SDS011;1571;52.524;14.104;2022-12-11T02:11:37;22.57;;;12.60;;
3121;SDS011;1571;52.524;14.104;2022-12-11T02:14:13;19.10;;;12.47;;
3121;SDS011;1571;52.524;14.104;2022-12-11T02:16:49;19.43;;;11.73;;
3121;SDS011;1571;52.524;14.104;2022-12-11T02:19:30;20.67;;;11.83;;
3121;SDS011;1571;52.524;14.104;2022-12-11T02:22:12;19.20;;;12.27;;
3121;SDS011;1571;52.524;14.104;2022-12-11T02:24:49;18.50;;;11.33;;
3121;SDS011;1571;52.524;14.104;2022-12-11T02:27:30;17.50;;;11.57;;
3121;SDS011;1571;52.524;14.104;2022-12-11T02:30:05;20.37;;;12.37;;
3121;SDS011;1571;52.524;14.104;2022-12-11T02:32:36;22.43;;;11.30;;
3121;SDS011;1571;52.524;14.104;2022-12-11T02:35:10;21.57;;;11.10;;
3121;SDS011;1571;52.524;14.104;2022-12-11T02:37:45;19.80;;;11.30;;
3121;SDS011;1571;52.524;14.104;2022-12-11T02:40:16;16.63;;;11.47;;
3121;SDS011;1571;52.524;14.104;2022-12-11T02:42:48;20.50;;;12.00;;
3121;SDS011;1571;52.524;14.104;2022-12-11T02:45:19;19.60;;;12.57;;
3121;SDS011;1571;52.524;14.104;2022-12-11T02:47:50;18.63;;;9.40;;
3121;SDS011;1571;52.524;14.104;2022-12-11T02:50:19;18.83;;;10.33;;
3121;SDS011;1571;52.524;14.104;2022-12-11T02:52:50;21.73;;;11.97;;
3121;SDS011;1571;52.524;14.104;2022-12-11T02:55:22;23.27;;;11.87;;
3121;SDS011;1571;52.524;14.104;2022-12-11T02:57:55;20.33;;;12.90;;
3121;SDS011;1571;52.524;14.104;2022-12-11T03:00:30;16.93;;;11.50;;
3121;SDS011;1571;52.524;14.104;2022-12-11T03:02:59;18.87;;;10.83;;
3121;SDS011;1571;52.524;14.104;2022-12-11T03:05:28;21.03;;;13.00;;
3121;SDS011;1571;52.524;14.104;2022-12-11T03:07:57;19.27;;;11.50;;
3121;SDS011;1571;52.524;14.104;2022-12-11T03:10:25;21.00;;;12.47;;
3121;SDS011;1571;52.524;14.104;2022-12-11T03:12:54;19.90;;;10.50;;
3121;SDS011;1571;52.524;14.104;2022-12-11T03:15:27;20.67;;;11.87;;
3121;SDS011;1571;52.524;14.104;2022-12-11T03:18:08;18.30;;;11.07;;
3121;SDS011;1571;52.524;14.104;2022-12-11T03:20:42;19.33;;;11.60;;
3121;SDS011;1571;52.524;14.104;2022-12-11T03:23:14;25.50;;;13.77;;
3121;SDS011;1571;52.524;14.104;2022-12-11T03:25:51;21.60;;;11.50;;
3121;SDS011;1571;52.524;14.104;2022-12-11T03:28:23;17.80;;;11.17;;
3121;SDS011;1571;52.524;14.104;2022-12-11T03:30:57;17.87;;;11.47;;
3121;SDS011;1571;52.524;14.104;2022-12-11T03:33:33;14.90;;;10.50;;
3121;SDS011;1571;52.524;14.104;2022-12-11T03:36:05;17.67;;;11.90;;
3121;SDS011;1571;52.524;14.104;2022-12-11T03:38:37;18.20;;;11.10;;
3121;SDS011;1571;52.524;14.104;2022-12-11T03:41:10;18.30;;;11.00;;
3121;SDS011;1571;52.524;14.104;2022-12-11T03:43:41;16.30;;;10.20;;
3121;SDS011;1571;52.524;14.104;2022-12-11T03:46:12;16.17;;;10.93;;
3121;SDS011;1571;52.524;14.104;2022-12-11T03:48:44;17.10;;;12.30;;
3121;SDS011;1571;52.524;14.104;2022-12-11T03:51:15;18.53;;;11.03;;
3121;SDS011;1571;52.524;14.104;2022-12-11T03:53:44;20.60;;;11.57;;
3121;SDS011;1571;52.524;14.104;2022-12-11T03:56:13;14.33;;;9.70;;
3121;SDS011;1571;52.524;14.104;2022-12-11T03:58:44;15.07;;;11.30;;
3121;SDS011;1571;52.524;14.104;2022-12-11T04:01:13;19.93;;;11.07;;
3121;SDS011;1571;52.524;14.104;2022-12-11T04:03:43;18.43;;;10.50;;
3121;SDS011;1571;52.524;14.104;2022-12-11T04:06:11;22.53;;;11.73;;
3121;SDS011;1571;52.524;14.104;2022-12-11T04:08:39;18.90;;;11.50;;
3121;SDS011;1571;52.524;14.104;2022-12-11T04:11:07;16.97;;;9.83;;
3121;SDS011;1571;52.524;14.104;2022-12-11T04:13:54;19.53;;;11.20;;
3121;SDS011;1571;52.524;14.104;2022-12-11T04:16:37;15.13;;;10.10;;
3121;SDS011;1571;52.524;14.104;2022-12-11T04:19:05;19.63;;;10.33;;
3121;SDS011;1571;52.524;14.104;2022-12-11T04:21:51;16.80;;;10.80;;
3121;SDS011;1571;52.524;14.104;2022-12-11T04:24:37;15.93;;;10.00;;
3121;SDS011;1571;52.524;14.104;2022-12-11T04:27:06;17.60;;;9.40;;
3121;SDS011;1571;52.524;14.104;2022-12-11T04:29:34;21.10;;;10.23;;
3121;SDS011;1571;52.524;14.104;2022-12-11T04:32:04;17.53;;;10.83;;
3121;SDS011;1571;52.524;14.104;2022-12-11T04:34:32;17.60;;;10.67;;
3121;SDS011;1571;52.524;14.104;2022-12-11T04:37:00;15.63;;;9.97;;
3121;SDS011;1571;52.524;14.104;2022-12-11T04:39:28;19.17;;;11.03;;
3121;SDS011;1571;52.524;14.104;2022-12-11T04:41:56;18.50;;;12.07;;
3121;SDS011;1571;52.524;14.104;2022-12-11T04:44:25;14.90;;;9.93;;
3121;SDS011;1571;52.524;14.104;2022-12-11T04:46:53;19.57;;;10.67;;
3121;SDS011;1571;52.524;14.104;2022-12-11T04:49:22;21.40;;;11.10;;
3121;SDS011;1571;52.524;14.104;2022-12-11T04:51:50;18.83;;;12.53;;
3121;SDS011;1571;52.524;14.104;2022-12-11T04:54:19;26.30;;;11.87;;
3121;SDS011;1571;52.524;14.104;2022-12-11T04:56:47;17.00;;;12.13;;
3121;SDS011;1571;52.524;14.104;2022-12-11T04:59:15;21.03;;;10.83;;
3121;SDS011;1571;52.524;14.104;2022-12-11T05:01:43;24.10;;;12.80;;
3121;SDS011;1571;52.524;14.104;2022-12-11T05:04:11;21.37;;;12.43;;
3121;SDS011;1571;52.524;14.104;2022-12-11T05:06:41;21.30;;;12.23;;
3121;SDS011;1571;52.524;14.104;2022-12-11T05:09:09;21.23;;;12.40;;
3121;SDS011;1571;52.524;14.104;2022-12-11T05:11:39;23.53;;;12.90;;
3121;SDS011;1571;52.524;14.104;2022-12-11T05:14:07;26.77;;;14.17;;
3121;SDS011;1571;52.524;14.104;2022-12-11T05:16:36;19.67;;;11.07;;
3121;SDS011;1571;52.524;14.104;2022-12-11T05:19:04;22.87;;;12.63;;
3121;SDS011;1571;52.524;14.104;2022-12-11T05:21:33;19.67;;;11.70;;
3121;SDS011;1571;52.524;14.104;2022-12-11T05:24:02;20.83;;;13.20;;
3121;SDS011;1571;52.524;14.104;2022-12-11T05:26:31;21.90;;;11.43;;
3121;SDS011;1571;52.524;14.104;2022-12-11T05:29:00;24.90;;;14.87;;
3121;SDS011;1571;52.524;14.104;2022-12-11T05:31:28;24.70;;;12.50;;
3121;SDS011;1571;52.524;14.104;2022-12-11T05:33:56;24.40;;;13.47;;
3121;SDS011;1571;52.524;14.104;2022-12-11T05:36:25;27.93;;;15.03;;
3121;SDS011;1571;52.524;14.104;2022-12-11T05:38:56;34.23;;;16.40;;
3121;SDS011;1571;52.524;14.104;2022-12-11T05:41:28;27.20;;;14.97;;
3121;SDS011;1571;52.524;14.104;2022-12-11T05:43:58;26.60;;;14.60;;
3121;SDS011;1571;52.524;14.104;2022-12-11T05:46:27;31.90;;;15.30;;
3121;SDS011;1571;52.524;14.104;2022-12-11T05:48:57;24.80;;;13.27;;
3121;SDS011;1571;52.524;14.104;2022-12-11T05:51:27;21.37;;;11.53;;
3121;SDS011;1571;52.524;14.104;2022-12-11T05:53:56;17.40;;;11.07;;
3121;SDS011;1571;52.524;14.104;2022-12-11T05:56:25;22.87;;;13.60;;
3121;SDS011;1571;52.524;14.104;2022-12-11T05:58:57;20.90;;;12.07;;
3121;SDS011;1571;52.524;14.104;2022-12-11T06:01:27;20.07;;;12.63;;
3121;SDS011;1571;52.524;14.104;2022-12-11T06:03:57;19.50;;;11.77;;
3121;SDS011;1571;52.524;14.104;2022-12-11T06:06:26;20.33;;;10.50;;
3121;SDS011;1571;52.524;14.104;2022-12-11T06:08:55;15.57;;;8.53;;
3121;SDS011;1571;52.524;14.104;2022-12-11T06:11:28;17.67;;;9.70;;
3121;SDS011;1571;52.524;14.104;2022-12-11T06:13:59;14.03;;;9.40;;
3121;SDS011;1571;52.524;14.104;2022-12-11T06:16:28;16.20;;;9.47;;
3121;SDS011;1571;52.524;14.104;2022-12-11T06:18:56;16.43;;;8.70;;
3121;SDS011;1571;52.524;14.104;2022-12-11T06:21:26;17.33;;;9.83;;
3121;SDS011;1571;52.524;14.104;2022-12-11T06:23:57;16.17;;;10.07;;
3121;SDS011;1571;52.524;14.104;2022-12-11T06:26:27;16.83;;;11.37;;
3121;SDS011;1571;52.524;14.104;2022-12-11T06:28:57;14.80;;;10.20;;
3121;SDS011;1571;52.524;14.104;2022-12-11T06:31:25;14.87;;;9.53;;
3121;SDS011;1571;52.524;14.104;2022-12-11T06:33:54;14.80;;;9.43;;
3121;SDS011;1571;52.524;14.104;2022-12-11T06:36:22;16.33;;;11.60;;
3121;SDS011;1571;52.524;14.104;2022-12-11T06:38:51;18.07;;;10.00;;
3121;SDS011;1571;52.524;14.104;2022-12-11T06:41:19;15.17;;;10.23;;
3121;SDS011;1571;52.524;14.104;2022-12-11T06:43:48;17.33;;;11.47;;
3121;SDS011;1571;52.524;14.104;2022-12-11T06:46:18;12.50;;;9.10;;
3121;SDS011;1571;52.524;14.104;2022-12-11T06:48:47;14.57;;;10.00;;
3121;SDS011;1571;52.524;14.104;2022-12-11T06:51:16;19.90;;;12.00;;
3121;SDS011;1571;52.524;14.104;2022-12-11T06:53:48;16.40;;;9.97;;
3121;SDS011;1571;52.524;14.104;2022-12-11T06:56:18;15.17;;;10.30;;
3121;SDS011;1571;52.524;14.104;2022-12-11T06:58:46;19.90;;;12.00;;
3121;SDS011;1571;52.524;14.104;2022-12-11T07:01:16;17.80;;;12.70;;
3121;SDS011;1571;52.524;14.104;2022-12-11T07:03:46;19.20;;;11.57;;
3121;SDS011;1571;52.524;14.104;2022-12-11T07:06:15;18.83;;;11.13;;
3121;SDS011;1571;52.524;14.104;2022-12-11T07:08:45;17.40;;;11.07;;
3121;SDS011;1571;52.524;14.104;2022-12-11T07:11:15;19.30;;;10.80;;
3121;SDS011;1571;52.524;14.104;2022-12-11T07:13:44;19.57;;;11.50;;
3121;SDS011;1571;52.524;14.104;2022-12-11T07:16:14;16.70;;;11.93;;
3121;SDS011;1571;52.524;14.104;2022-12-11T07:18:46;16.73;;;11.00;;
3121;SDS011;1571;52.524;14.104;2022-12-11T07:21:15;15.20;;;10.77;;
3121;SDS011;1571;52.524;14.104;2022-12-11T07:23:44;15.50;;;11.23;;
3121;SDS011;1571;52.524;14.104;2022-12-11T07:26:13;19.77;;;10.20;;
3121;SDS011;1571;52.524;14.104;2022-12-11T07:28:43;18.17;;;11.83;;
3121;SDS011;1571;52.524;14.104;2022-12-11T07:31:12;19.63;;;11.87;;
3121;SDS011;1571;52.524;14.104;2022-12-11T07:33:43;15.90;;;11.50;;
3121;SDS011;1571;52.524;14.104;2022-12-11T07:36:12;18.43;;;11.03;;
3121;SDS011;1571;52.524;14.104;2022-12-11T07:38:41;22.30;;;13.07;;
3121;SDS011;1571;52.524;14.104;2022-12-11T07:41:11;21.00;;;12.67;;
3121;SDS011;1571;52.524;14.104;2022-12-11T07:43:40;16.63;;;10.37;;
3121;SDS011;1571;52.524;14.104;2022-12-11T07:46:10;22.33;;;12.20;;
3121;SDS011;1571;52.524;14.104;2022-12-11T07:48:40;18.53;;;12.00;;
3121;SDS011;1571;52.524;14.104;2022-12-11T07:51:11;18.27;;;11.10;;
3121;SDS011;1571;52.524;14.104;2022-12-11T07:53:42;17.70;;;11.07;;
3121;SDS011;1571;52.524;14.104;2022-12-11T07:56:11;19.83;;;10.50;;
3121;SDS011;1571;52.524;14.104;2022-12-11T07:58:40;140.10;;;44.57;;
3121;SDS011;1571;52.524;14.104;2022-12-11T08:01:09;142.60;;;49.43;;
3121;SDS011;1571;52.524;14.104;2022-12-11T08:03:39;168.83;;;47.57;;
3121;SDS011;1571;52.524;14.104;2022-12-11T08:06:08;159.17;;;48.57;;
3121;SDS011;1571;52.524;14.104;2022-12-11T08:08:38;59.13;;;24.07;;
3121;SDS011;1571;52.524;14.104;2022-12-11T08:11:08;40.43;;;18.67;;
3121;SDS011;1571;52.524;14.104;2022-12-11T08:13:38;24.27;;;12.10;;
3121;SDS011;1571;52.524;14.104;2022-12-11T08:16:07;17.83;;;11.07;;
3121;SDS011;1571;52.524;14.104;2022-12-11T08:18:37;19.37;;;12.20;;
3121;SDS011;1571;52.524;14.104;2022-12-11T08:21:05;20.50;;;12.57;;
3121;SDS011;1571;52.524;14.104;2022-12-11T08:23:34;19.57;;;11.97;;
3121;SDS011;1571;52.524;14.104;2022-12-11T08:26:05;21.57;;;11.80;;
3121;SDS011;1571;52.524;14.104;2022-12-11T08:28:35;23.03;;;13.73;;
3121;SDS011;1571;52.524;14.104;2022-12-11T08:31:04;27.27;;;11.50;;
3121;SDS011;1571;52.524;14.104;2022-12-11T08:33:34;18.27;;;11.73;;
3121;SDS011;1571;52.524;14.104;2022-12-11T08:36:04;18.40;;;12.17;;
3121;SDS011;1571;52.524;14.104;2022-12-11T08:38:34;20.20;;;11.73;;
3121;SDS011;1571;52.524;14.104;2022-12-11T08:41:08;25.17;;;12.30;;
3121;SDS011;1571;52.524;14.104;2022-12-11T08:43:36;15.93;;;10.90;;
3121;SDS011;1571;52.524;14.104;2022-12-11T08:46:05;25.90;;;13.17;;
3121;SDS011;1571;52.524;14.104;2022-12-11T08:48:34;24.20;;;13.13;;
3121;SDS011;1571;52.524;14.104;2022-12-11T08:51:05;28.07;;;15.97;;
3121;SDS011;1571;52.524;14.104;2022-12-11T08:53:34;43.03;;;22.80;;
3121;SDS011;1571;52.524;14.104;2022-12-11T08:56:04;38.50;;;23.53;;
3121;SDS011;1571;52.524;14.104;2022-12-11T08:58:35;23.73;;;11.90;;
3121;SDS011;1571;52.524;14.104;2022-12-11T09:01:05;18.87;;;11.40;;
3121;SDS011;1571;52.524;14.104;2022-12-11T09:03:34;14.60;;;9.27;;
3121;SDS011;1571;52.524;14.104;2022-12-11T09:06:03;21.73;;;11.67;;
3121;SDS011;1571;52.524;14.104;2022-12-11T09:08:33;23.70;;;11.90;;
3121;SDS011;1571;52.524;14.104;2022-12-11T09:11:01;19.20;;;12.53;;
3121;SDS011;1571;52.524;14.104;2022-12-11T09:13:31;18.77;;;11.27;;
3121;SDS011;1571;52.524;14.104;2022-12-11T09:16:02;20.97;;;11.30;;
3121;SDS011;1571;52.524;14.104;2022-12-11T09:18:31;16.60;;;11.20;;
3121;SDS011;1571;52.524;14.104;2022-12-11T09:20:59;16.60;;;10.13;;
3121;SDS011;1571;52.524;14.104;2022-12-11T09:23:28;19.73;;;10.37;;
3121;SDS011;1571;52.524;14.104;2022-12-11T09:25:56;13.70;;;9.30;;
3121;SDS011;1571;52.524;14.104;2022-12-11T09:28:25;19.60;;;10.57;;
3121;SDS011;1571;52.524;14.104;2022-12-11T09:30:53;16.40;;;9.43;;
3121;SDS011;1571;52.524;14.104;2022-12-11T09:33:23;14.27;;;10.07;;
3121;SDS011;1571;52.524;14.104;2022-12-11T09:35:55;18.00;;;10.07;;
3121;SDS011;1571;52.524;14.104;2022-12-11T09:38:24;17.00;;;10.27;;
3121;SDS011;1571;52.524;14.104;2022-12-11T09:40:53;16.60;;;10.77;;
3121;SDS011;1571;52.524;14.104;2022-12-11T09:43:30;17.67;;;10.83;;
3121;SDS011;1571;52.524;14.104;2022-12-11T09:46:04;17.27;;;10.73;;
3121;SDS011;1571;52.524;14.104;2022-12-11T09:48:38;19.30;;;10.47;;
3121;SDS011;1571;52.524;14.104;2022-12-11T09:51:12;16.20;;;10.23;;
3121;SDS011;1571;52.524;14.104;2022-12-11T09:53:46;17.53;;;10.83;;
3121;SDS011;1571;52.524;14.104;2022-12-11T09:56:16;14.53;;;9.80;;
3121;SDS011;1571;52.524;14.104;2022-12-11T09:58:56;16.40;;;10.43;;
3121;SDS011;1571;52.524;14.104;2022-12-11T10:01:34;17.90;;;10.50;;
3121;SDS011;1571;52.524;14.104;2022-12-11T10:04:12;14.53;;;9.47;;
3121;SDS011;1571;52.524;14.104;2022-12-11T10:06:55;17.77;;;11.03;;
3121;SDS011;1571;52.524;14.104;2022-12-11T10:09:33;15.83;;;9.97;;
3121;SDS011;1571;52.524;14.104;2022-12-11T10:12:08;13.50;;;9.07;;
3121;SDS011;1571;52.524;14.104;2022-12-11T10:14:51;20.03;;;9.90;;
3121;SDS011;1571;52.524;14.104;2022-12-11T10:17:37;14.23;;;7.90;;
3121;SDS011;1571;52.524;14.104;2022-12-11T10:20:13;15.10;;;10.07;;
3121;SDS011;1571;52.524;14.104;2022-12-11T10:22:48;16.00;;;9.40;;
3121;SDS011;1571;52.524;14.104;2022-12-11T10:25:19;17.50;;;10.47;;
3121;SDS011;1571;52.524;14.104;2022-12-11T10:27:51;14.37;;;10.17;;
3121;SDS011;1571;52.524;14.104;2022-12-11T10:30:20;14.03;;;9.43;;
3121;SDS011;1571;52.524;14.104;2022-12-11T10:32:51;13.17;;;8.70;;
3121;SDS011;1571;52.524;14.104;2022-12-11T10:35:28;15.17;;;10.80;;
3121;SDS011;1571;52.524;14.104;2022-12-11T10:38:03;15.70;;;9.63;;
3121;SDS011;1571;52.524;14.104;2022-12-11T10:40:39;14.77;;;9.20;;
3121;SDS011;1571;52.524;14.104;2022-12-11T10:43:11;18.13;;;10.10;;
3121;SDS011;1571;52.524;14.104;2022-12-11T10:45:48;16.63;;;9.77;;
3121;SDS011;1571;52.524;14.104;2022-12-11T10:48:17;16.47;;;10.57;;
3121;SDS011;1571;52.524;14.104;2022-12-11T10:50:54;19.43;;;10.50;;
3121;SDS011;1571;52.524;14.104;2022-12-11T10:53:25;14.67;;;9.17;;
3121;SDS011;1571;52.524;14.104;2022-12-11T10:55:54;14.43;;;8.37;;
3121;SDS011;1571;52.524;14.104;2022-12-11T10:58:25;18.50;;;10.40;;
3121;SDS011;1571;52.524;14.104;2022-12-11T11:01:04;14.63;;;9.37;;
3121;SDS011;1571;52.524;14.104;2022-12-11T11:03:35;15.50;;;9.13;;
3121;SDS011;1571;52.524;14.104;2022-12-11T11:06:21;16.13;;;9.00;;
3121;SDS011;1571;52.524;14.104;2022-12-11T11:08:50;13.93;;;8.97;;
3121;SDS011;1571;52.524;14.104;2022-12-11T11:11:24;17.53;;;9.10;;
3121;SDS011;1571;52.524;14.104;2022-12-11T11:14:05;12.20;;;7.73;;
3121;SDS011;1571;52.524;14.104;2022-12-11T11:16:35;14.90;;;8.70;;
3121;SDS011;1571;52.524;14.104;2022-12-11T11:19:04;14.23;;;8.37;;
3121;SDS011;1571;52.524;14.104;2022-12-11T11:21:35;15.10;;;9.00;;
3121;SDS011;1571;52.524;14.104;2022-12-11T11:24:03;12.83;;;9.67;;
3121;SDS011;1571;52.524;14.104;2022-12-11T11:26:31;14.87;;;9.57;;
3121;SDS011;1571;52.524;14.104;2022-12-11T11:29:22;10.30;;;7.57;;
3121;SDS011;1571;52.524;14.104;2022-12-11T11:31:55;14.60;;;8.90;;
3121;SDS011;1571;52.524;14.104;2022-12-11T11:34:24;15.40;;;8.40;;
3121;SDS011;1571;52.524;14.104;2022-12-11T11:36:57;11.70;;;7.40;;
3121;SDS011;1571;52.524;14.104;2022-12-11T11:39:32;11.97;;;8.00;;
3121;SDS011;1571;52.524;14.104;2022-12-11T11:42:05;14.50;;;8.63;;
3121;SDS011;1571;52.524;14.104;2022-12-11T11:44:42;15.33;;;8.17;;
3121;SDS011;1571;52.524;14.104;2022-12-11T11:47:16;15.80;;;8.27;;
3121;SDS011;1571;52.524;14.104;2022-12-11T11:49:49;15.10;;;9.47;;
3121;SDS011;1571;52.524;14.104;2022-12-11T11:52:24;14.60;;;8.53;;
3121;SDS011;1571;52.524;14.104;2022-12-11T11:55:02;18.67;;;8.33;;
3121;SDS011;1571;52.524;14.104;2022-12-11T11:57:37;14.20;;;9.03;;
3121;SDS011;1571;52.524;14.104;2022-12-11T12:00:15;13.60;;;8.33;;
3121;SDS011;1571;52.524;14.104;2022-12-11T12:02:46;15.10;;;9.47;;
3121;SDS011;1571;52.524;14.104;2022-12-11T12:05:16;12.73;;;8.93;;
3121;SDS011;1571;52.524;14.104;2022-12-11T12:07:52;14.03;;;8.40;;
3121;SDS011;1571;52.524;14.104;2022-12-11T12:10:33;16.80;;;9.33;;
3121;SDS011;1571;52.524;14.104;2022-12-11T12:13:21;15.50;;;8.67;;
3121;SDS011;1571;52.524;14.104;2022-12-11T12:16:16;13.83;;;8.40;;
3121;SDS011;1571;52.524;14.104;2022-12-11T12:19:13;12.23;;;8.03;;
3121;SDS011;1571;52.524;14.104;2022-12-11T12:21:51;13.50;;;8.37;;
3121;SDS011;1571;52.524;14.104;2022-12-11T12:24:23;16.20;;;10.40;;
3121;SDS011;1571;52.524;14.104;2022-12-11T12:27:01;16.17;;;9.30;;
3121;SDS011;1571;52.524;14.104;2022-12-11T12:30:06;10.20;;;8.20;;
3121;SDS011;1571;52.524;14.104;2022-12-11T12:32:41;17.73;;;9.63;;
3121;SDS011;1571;52.524;14.104;2022-12-11T12:35:28;16.27;;;9.90;;
3121;SDS011;1571;52.524;14.104;2022-12-11T12:38:05;13.00;;;7.83;;
3121;SDS011;1571;52.524;14.104;2022-12-11T12:40:44;14.00;;;9.03;;
3121;SDS011;1571;52.524;14.104;2022-12-11T12:43:28;16.30;;;9.20;;
3121;SDS011;1571;52.524;14.104;2022-12-11T12:46:13;12.07;;;7.20;;
3121;SDS011;1571;52.524;14.104;2022-12-11T12:48:50;13.50;;;8.50;;
3121;SDS011;1571;52.524;14.104;2022-12-11T12:51:19;11.83;;;7.67;;
3121;SDS011;1571;52.524;14.104;2022-12-11T12:53:48;16.20;;;9.77;;
3121;SDS011;1571;52.524;14.104;2022-12-11T12:56:21;11.90;;;8.30;;
3121;SDS011;1571;52.524;14.104;2022-12-11T12:58:51;12.43;;;7.93;;
3121;SDS011;1571;52.524;14.104;2022-12-11T13:01:21;12.47;;;8.47;;
3121;SDS011;1571;52.524;14.104;2022-12-11T13:03:53;14.63;;;8.40;;
3121;SDS011;1571;52.524;14.104;2022-12-11T13:06:30;15.53;;;10.30;;
3121;SDS011;1571;52.524;14.104;2022-12-11T13:09:12;14.50;;;9.37;;
3121;SDS011;1571;52.524;14.104;2022-12-11T13:11:43;16.80;;;8.97;;
3121;SDS011;1571;52.524;14.104;2022-12-11T13:14:23;9.97;;;8.43;;
3121;SDS011;1571;52.524;14.104;2022-12-11T13:17:06;12.23;;;8.60;;
3121;SDS011;1571;52.524;14.104;2022-12-11T13:19:50;13.07;;;8.40;;
3121;SDS011;1571;52.524;14.104;2022-12-11T13:22:30;17.33;;;9.93;;
3121;SDS011;1571;52.524;14.104;2022-12-11T13:24:59;11.77;;;8.17;;
3121;SDS011;1571;52.524;14.104;2022-12-11T13:27:48;12.30;;;7.10;;
3121;SDS011;1571;52.524;14.104;2022-12-11T13:30:20;15.80;;;9.00;;
3121;SDS011;1571;52.524;14.104;2022-12-11T13:32:56;16.10;;;9.00;;
3121;SDS011;1571;52.524;14.104;2022-12-11T13:35:29;13.70;;;9.10;;
3121;SDS011;1571;52.524;14.104;2022-12-11T13:38:00;12.50;;;8.17;;
3121;SDS011;1571;52.524;14.104;2022-12-11T13:40:35;11.63;;;7.03;;
3121;SDS011;1571;52.524;14.104;2022-12-11T13:43:08;10.63;;;8.10;;
3121;SDS011;1571;52.524;14.104;2022-12-11T13:45:45;12.63;;;8.80;;
3121;SDS011;1571;52.524;14.104;2022-12-11T13:48:20;14.60;;;9.27;;
3121;SDS011;1571;52.524;14.104;2022-12-11T13:50:53;13.07;;;9.07;;
3121;SDS011;1571;52.524;14.104;2022-12-11T13:53:23;12.23;;;8.63;;
3121;SDS011;1571;52.524;14.104;2022-12-11T13:55:55;11.63;;;7.87;;
3121;SDS011;1571;52.524;14.104;2022-12-11T13:58:24;11.33;;;7.83;;
3121;SDS011;1571;52.524;14.104;2022-12-11T14:00:53;12.77;;;8.77;;
3121;SDS011;1571;52.524;14.104;2022-12-11T14:03:30;11.43;;;7.73;;
3121;SDS011;1571;52.524;14.104;2022-12-11T14:05:59;11.43;;;7.33;;
3121;SDS011;1571;52.524;14.104;2022-12-11T14:08:30;17.37;;;9.73;;
3121;SDS011;1571;52.524;14.104;2022-12-11T14:11:02;12.87;;;7.90;;
3121;SDS011;1571;52.524;14.104;2022-12-11T14:13:32;16.17;;;8.70;;
3121;SDS011;1571;52.524;14.104;2022-12-11T14:16:02;13.27;;;7.60;;
3121;SDS011;1571;52.524;14.104;2022-12-11T14:18:34;13.07;;;8.40;;
3121;SDS011;1571;52.524;14.104;2022-12-11T14:21:04;13.53;;;7.77;;
3121;SDS011;1571;52.524;14.104;2022-12-11T14:23:33;12.90;;;8.30;;
3121;SDS011;1571;52.524;14.104;2022-12-11T14:26:03;17.00;;;8.77;;
3121;SDS011;1571;52.524;14.104;2022-12-11T14:28:46;10.70;;;7.10;;
3121;SDS011;1571;52.524;14.104;2022-12-11T14:31:15;13.70;;;8.83;;
3121;SDS011;1571;52.524;14.104;2022-12-11T14:33:50;12.10;;;8.60;;
3121;SDS011;1571;52.524;14.104;2022-12-11T14:36:22;15.90;;;9.07;;
3121;SDS011;1571;52.524;14.104;2022-12-11T14:38:53;14.80;;;9.10;;
3121;SDS011;1571;52.524;14.104;2022-12-11T14:41:25;12.20;;;7.87;;
3121;SDS011;1571;52.524;14.104;2022-12-11T14:43:58;10.30;;;7.47;;
3121;SDS011;1571;52.524;14.104;2022-12-11T14:46:31;13.40;;;7.70;;
3121;SDS011;1571;52.524;14.104;2022-12-11T14:49:06;14.47;;;9.00;;
3121;SDS011;1571;52.524;14.104;2022-12-11T14:51:44;14.63;;;9.20;;
3121;SDS011;1571;52.524;14.104;2022-12-11T14:54:14;10.73;;;7.50;;
3121;SDS011;1571;52.524;14.104;2022-12-11T14:56:54;12.83;;;10.30;;
3121;SDS011;1571;52.524;14.104;2022-12-11T14:59:23;14.03;;;8.83;;
3121;SDS011;1571;52.524;14.104;2022-12-11T15:01:58;13.43;;;8.60;;
3121;SDS011;1571;52.524;14.104;2022-12-11T15:04:30;15.80;;;8.30;;
3121;SDS011;1571;52.524;14.104;2022-12-11T15:07:00;11.77;;;8.17;;